Time;durP1;ratioP1;P1;durP2;ratioP2;P2;SDS_P1;SDS_P2;PMS_P1;PMS_P2;Temp;Humidity;BMP_temperature;BMP_pressure;BME280_temperature;BME280_humidity;BME280_pressure;Samples;Min_cycle;Max_cycle;Signal;HPM_P1;HPM_P2
2021/03/07 00:00:38;;;;;;;17.73;11.15;;;-2.00;99.90;;;;;;5013641;28;20040;-71
2021/03/07 00:03:03;;;;;;;18.95;10.93;;;-2.10;99.90;;;;;;5013229;28;20116;-71
2021/03/07 00:05:29;;;;;;;20.42;10.63;;;-2.10;99.90;;;;;;5013517;28;20032;-70
2021/03/07 00:07:55;;;;;;;16.90;10.38;;;-2.00;99.90;;;;;;5013426;28;20396;-72
2021/03/07 00:10:21;;;;;;;21.55;10.55;;;-2.00;99.90;;;;;;5021746;28;20034;-71
2021/03/07 00:12:49;;;;;;;16.58;10.57;;;-2.00;99.90;;;;;;5019451;28;20022;-71
2021/03/07 00:15:17;;;;;;;18.67;10.10;;;-2.00;99.90;;;;;;5013704;28;20026;-71
2021/03/07 00:17:43;;;;;;;16.40;10.90;;;-2.10;99.90;;;;;;5013647;28;20037;-72
2021/03/07 00:20:11;;;;;;;18.75;12.50;;;-2.10;99.90;;;;;;5013485;28;20038;-72
2021/03/07 00:22:38;;;;;;;28.58;11.68;;;-2.20;99.90;;;;;;5010338;28;20112;-72
2021/03/07 00:25:05;;;;;;;20.90;12.02;;;-2.20;99.90;;;;;;5002115;28;20038;-73
2021/03/07 00:27:31;;;;;;;23.17;12.00;;;-2.20;99.90;;;;;;5002418;28;20026;-73
2021/03/07 00:29:56;;;;;;;21.80;12.13;;;-2.20;99.90;;;;;;5002155;28;20457;-72
2021/03/07 00:32:22;;;;;;;20.65;11.55;;;-2.30;99.90;;;;;;5001212;28;20018;-72
2021/03/07 00:34:48;;;;;;;23.30;11.18;;;-2.30;99.90;;;;;;5001188;28;20519;-73
2021/03/07 00:37:13;;;;;;;17.05;11.05;;;-2.30;99.90;;;;;;5000324;28;20173;-73
2021/03/07 00:39:39;;;;;;;20.55;10.90;;;-2.30;99.90;;;;;;4999997;28;20397;-73
2021/03/07 00:42:05;;;;;;;22.52;10.75;;;-2.30;99.90;;;;;;5002426;28;20045;-72
2021/03/07 00:44:31;;;;;;;19.75;11.57;;;-2.40;99.90;;;;;;5000562;28;20030;-73
2021/03/07 00:46:57;;;;;;;17.77;10.70;;;-2.40;99.90;;;;;;5001682;28;20045;-73
2021/03/07 00:49:27;;;;;;;20.38;10.48;;;-2.50;99.90;;;;;;5007116;28;20045;-72
2021/03/07 00:51:52;;;;;;;17.70;10.68;;;-2.50;99.90;;;;;;4999056;28;20429;-72
2021/03/07 00:54:18;;;;;;;17.35;11.13;;;-2.50;99.90;;;;;;5002519;28;20014;-73
2021/03/07 00:56:44;;;;;;;17.77;10.90;;;-2.50;99.90;;;;;;5002078;28;20026;-71
2021/03/07 00:59:10;;;;;;;18.83;10.15;;;-2.50;99.90;;;;;;5000759;28;20549;-71
2021/03/07 01:01:36;;;;;;;16.42;10.43;;;-2.60;99.90;;;;;;5000401;28;20089;-72
2021/03/07 01:04:02;;;;;;;22.08;10.65;;;-2.60;99.90;;;;;;4999877;28;20130;-73
2021/03/07 01:06:28;;;;;;;15.27;9.73;;;-2.60;99.90;;;;;;5002259;28;20025;-71
2021/03/07 01:08:53;;;;;;;15.65;9.82;;;-2.60;99.90;;;;;;5000803;28;20088;-72
2021/03/07 01:11:19;;;;;;;16.85;10.32;;;-2.60;99.90;;;;;;5003603;28;20393;-71
2021/03/07 01:13:45;;;;;;;23.00;10.52;;;-2.70;99.90;;;;;;5001383;28;20495;-72
2021/03/07 01:16:11;;;;;;;19.92;9.98;;;-2.70;99.90;;;;;;4999855;28;20030;-72
2021/03/07 01:18:36;;;;;;;16.88;10.27;;;-2.70;99.90;;;;;;5000853;28;20045;-72
2021/03/07 01:21:02;;;;;;;18.00;10.73;;;-2.70;99.90;;;;;;5001098;28;20036;-73
2021/03/07 01:23:31;;;;;;;23.33;11.85;;;-2.80;99.90;;;;;;5001324;28;20026;-71
2021/03/07 01:25:57;;;;;;;22.08;11.10;;;-2.80;99.90;;;;;;5000614;28;20512;-76
2021/03/07 01:28:23;;;;;;;20.40;9.95;;;-2.80;99.90;;;;;;4998796;28;20059;-76
2021/03/07 01:30:48;;;;;;;21.83;11.55;;;-2.80;99.90;;;;;;5001793;28;20049;-76
2021/03/07 01:33:14;;;;;;;22.50;11.85;;;-2.80;99.90;;;;;;4999657;28;20019;-73
2021/03/07 01:35:40;;;;;;;21.15;11.57;;;-2.80;99.90;;;;;;5000248;28;20026;-75
2021/03/07 01:38:07;;;;;;;21.77;11.77;;;-2.80;99.90;;;;;;5001278;28;20105;-75
2021/03/07 01:40:35;;;;;;;22.67;11.50;;;-2.90;99.90;;;;;;5000814;28;20052;-75
2021/03/07 01:43:01;;;;;;;23.00;12.02;;;-2.90;99.90;;;;;;5001444;28;20429;-75
2021/03/07 01:45:29;;;;;;;20.67;13.05;;;-2.90;99.90;;;;;;5004146;28;20165;-76
2021/03/07 01:47:58;;;;;;;22.60;12.25;;;-2.90;99.90;;;;;;5007518;28;20042;-76
2021/03/07 01:50:27;;;;;;;26.15;12.70;;;-2.90;99.90;;;;;;5006581;28;20022;-75
2021/03/07 01:52:53;;;;;;;17.88;10.52;;;-3.00;99.90;;;;;;5002324;28;20544;-75
2021/03/07 01:55:23;;;;;;;20.02;11.57;;;-3.00;99.90;;;;;;5005080;28;20015;-75
2021/03/07 01:58:12;;;;;;;19.65;12.10;;;-3.00;99.90;;;;;;5004545;28;20014;-77
2021/03/07 02:00:38;;;;;;;22.85;12.15;;;-3.00;99.90;;;;;;4992999;28;20393;-75
2021/03/07 02:03:04;;;;;;;23.88;12.73;;;-3.00;99.90;;;;;;5002091;28;20036;-76
2021/03/07 02:05:31;;;;;;;21.13;11.73;;;-3.00;99.90;;;;;;5004360;28;20053;-75
2021/03/07 02:07:57;;;;;;;22.77;12.00;;;-3.10;99.90;;;;;;5003516;28;20030;-75
2021/03/07 02:10:29;;;;;;;25.23;11.88;;;-3.10;99.90;;;;;;4993925;28;20034;-69
2021/03/07 02:13:02;;;;;;;20.85;11.82;;;-3.20;99.90;;;;;;4992857;28;20489;-68
2021/03/07 02:15:30;;;;;;;21.20;11.00;;;-3.20;99.90;;;;;;4992003;28;20584;-70
2021/03/07 02:17:56;;;;;;;17.98;11.20;;;-3.30;99.90;;;;;;4992003;28;20050;-69
2021/03/07 02:20:24;;;;;;;21.15;11.30;;;-3.30;99.90;;;;;;4993321;28;20081;-68
2021/03/07 02:23:03;;;;;;;17.48;10.85;;;-3.30;99.90;;;;;;5007733;28;20052;-69
2021/03/07 02:25:29;;;;;;;23.02;11.07;;;-3.30;99.90;;;;;;5013236;28;20119;-69
2021/03/07 02:27:57;;;;;;;19.08;11.52;;;-3.30;99.90;;;;;;5013353;28;20026;-71
2021/03/07 02:30:24;;;;;;;21.30;12.07;;;-3.40;99.90;;;;;;5030435;28;20034;-70
2021/03/07 02:32:57;;;;;;;22.90;11.75;;;-3.30;99.90;;;;;;5032003;28;20010;-69
2021/03/07 02:35:25;;;;;;;23.80;12.50;;;-3.30;99.90;;;;;;5033436;28;20010;-69
2021/03/07 02:37:57;;;;;;;20.25;12.18;;;-3.30;99.90;;;;;;5026215;28;20022;-69
2021/03/07 02:40:24;;;;;;;;;;;-3.30;99.90;;;;;;5019228;28;20084;-70
2021/03/07 02:42:51;;;;;;;20.98;11.45;;;-3.40;99.90;;;;;;5014562;28;19905;-70
2021/03/07 02:45:20;;;;;;;19.45;11.38;;;-3.30;99.90;;;;;;5015812;28;20022;-71
2021/03/07 02:47:49;;;;;;;20.08;11.55;;;-3.20;99.90;;;;;;5029755;28;20060;-69
2021/03/07 02:50:20;;;;;;;20.52;11.25;;;-3.30;99.90;;;;;;5020590;28;20026;-68
2021/03/07 02:53:08;;;;;;;20.05;11.10;;;-3.30;99.90;;;;;;5018744;28;20037;-69
2021/03/07 02:55:37;;;;;;;23.10;12.27;;;-3.40;99.90;;;;;;5018365;28;20029;-68
2021/03/07 02:58:05;;;;;;;23.98;12.13;;;-3.40;99.90;;;;;;5016770;28;20448;-69
2021/03/07 03:00:33;;;;;;;24.48;13.05;;;-3.40;99.90;;;;;;5018311;28;20616;-69
2021/03/07 03:03:04;;;;;;;23.15;12.95;;;-3.40;99.90;;;;;;5014699;28;20114;-71
2021/03/07 03:05:31;;;;;;;21.65;13.18;;;-3.40;99.90;;;;;;5015284;28;20026;-70
2021/03/07 03:07:59;;;;;;;23.90;13.30;;;-3.40;99.90;;;;;;5015236;28;20149;-69
2021/03/07 03:10:26;;;;;;;25.75;14.15;;;-3.40;99.90;;;;;;5013029;28;20487;-68
2021/03/07 03:12:52;;;;;;;20.40;13.13;;;-3.40;99.90;;;;;;5014483;28;20022;-70
2021/03/07 03:15:19;;;;;;;28.30;14.32;;;-3.40;99.90;;;;;;5014447;28;20033;-70
2021/03/07 03:17:47;;;;;;;22.55;13.07;;;-3.40;99.90;;;;;;5020660;28;20066;-70
2021/03/07 03:20:15;;;;;;;23.27;13.18;;;-3.40;99.90;;;;;;5039525;28;20029;-70
2021/03/07 03:22:43;;;;;;;25.08;13.88;;;-3.50;99.90;;;;;;5039132;28;20029;-70
2021/03/07 03:25:10;;;;;;;25.60;13.13;;;-3.50;99.90;;;;;;5019069;28;20108;-69
2021/03/07 03:27:36;;;;;;;23.42;12.90;;;-3.50;99.90;;;;;;5031789;28;20018;-70
2021/03/07 03:30:11;;;;;;;24.13;15.23;;;-3.40;99.90;;;;;;5024064;28;20034;-70
2021/03/07 03:32:37;;;;;;;20.23;12.45;;;-3.50;99.90;;;;;;4994954;28;20030;-70
2021/03/07 03:35:11;;;;;;;21.80;12.75;;;-3.50;99.90;;;;;;4995258;28;20018;-70
2021/03/07 03:37:39;;;;;;;20.48;12.57;;;-3.50;99.90;;;;;;4993639;28;20045;-69
2021/03/07 03:40:08;;;;;;;21.23;13.38;;;-3.50;99.90;;;;;;4994775;28;20034;-69
2021/03/07 03:42:37;;;;;;;22.27;13.40;;;-3.50;99.90;;;;;;4995231;28;20034;-68
2021/03/07 03:45:06;;;;;;;25.38;14.50;;;-3.60;99.90;;;;;;4995027;28;20034;-69
2021/03/07 03:47:33;;;;;;;22.95;14.05;;;-3.60;99.90;;;;;;4994937;28;20049;-68
2021/03/07 03:50:00;;;;;;;26.58;13.68;;;-3.60;99.90;;;;;;4994753;28;20508;-70
2021/03/07 03:52:29;;;;;;;21.10;12.85;;;-3.60;99.90;;;;;;4995091;28;20026;-70
2021/03/07 03:55:03;;;;;;;23.92;14.10;;;-3.60;99.90;;;;;;4993890;28;20026;-70
2021/03/07 03:57:31;;;;;;;20.70;12.35;;;-3.50;99.90;;;;;;4994492;28;20026;-70
2021/03/07 04:00:01;;;;;;;24.30;13.60;;;-3.50;99.90;;;;;;5006683;28;20026;-71
2021/03/07 04:02:28;;;;;;;24.02;12.90;;;-3.40;99.90;;;;;;5014609;28;20029;-70
2021/03/07 04:04:57;;;;;;;23.77;14.10;;;-3.40;99.90;;;;;;5013708;28;20535;-69
2021/03/07 04:07:25;;;;;;;21.98;12.02;;;-3.40;99.90;;;;;;5014180;28;20088;-69
2021/03/07 04:09:53;;;;;;;19.73;11.75;;;-3.30;99.90;;;;;;5014597;28;20049;-69
2021/03/07 04:12:20;;;;;;;21.98;11.35;;;-3.40;99.90;;;;;;5013056;28;20030;-70
2021/03/07 04:14:47;;;;;;;21.83;13.27;;;-3.40;99.90;;;;;;5013227;28;20543;-70
2021/03/07 04:17:21;;;;;;;19.85;12.65;;;-3.40;99.90;;;;;;5013622;28;20508;-70
2021/03/07 04:19:48;;;;;;;24.23;12.13;;;-3.40;99.90;;;;;;5013600;28;20029;-70
2021/03/07 04:22:15;;;;;;;21.58;12.55;;;-3.50;99.90;;;;;;5013566;28;20030;-69
2021/03/07 04:24:41;;;;;;;22.40;12.48;;;-3.40;99.90;;;;;;5011874;28;20030;-69
2021/03/07 04:27:07;;;;;;;19.88;12.45;;;-3.40;99.90;;;;;;5019588;28;20033;-71
2021/03/07 04:29:34;;;;;;;18.33;11.73;;;-3.30;99.90;;;;;;5023856;28;20229;-70
2021/03/07 04:32:00;;;;;;;24.67;13.00;;;-3.30;99.90;;;;;;5025853;28;20393;-72
2021/03/07 04:34:26;;;;;;;22.15;13.48;;;-3.20;99.90;;;;;;5024712;28;20032;-69
2021/03/07 04:36:52;;;;;;;23.45;12.20;;;-3.10;99.90;;;;;;5022999;28;20037;-69
2021/03/07 04:39:18;;;;;;;23.10;12.73;;;-2.90;99.90;;;;;;5013299;28;20029;-70
2021/03/07 04:41:44;;;;;;;18.95;12.35;;;-2.80;99.90;;;;;;5013212;28;20026;-70
2021/03/07 04:44:10;;;;;;;19.45;12.05;;;-2.80;99.90;;;;;;5012431;28;20037;-68
2021/03/07 04:46:35;;;;;;;22.75;13.25;;;-2.70;99.90;;;;;;5012574;28;20025;-68
2021/03/07 04:49:01;;;;;;;19.95;13.00;;;-2.60;99.90;;;;;;5012766;28;20033;-69
2021/03/07 04:51:27;;;;;;;21.10;12.40;;;-2.60;99.90;;;;;;5012957;28;20101;-70
2021/03/07 04:53:53;;;;;;;23.75;13.32;;;-2.50;99.90;;;;;;5012109;28;20221;-70
2021/03/07 04:56:18;;;;;;;23.60;13.52;;;-2.40;99.90;;;;;;5012550;28;20049;-70
2021/03/07 04:58:44;;;;;;;19.67;11.68;;;-2.40;99.90;;;;;;5012626;28;20042;-69
2021/03/07 05:01:10;;;;;;;23.85;12.43;;;-2.40;99.90;;;;;;5011157;28;20029;-69
2021/03/07 05:03:35;;;;;;;23.17;12.48;;;-2.40;99.90;;;;;;5011942;28;20033;-70
2021/03/07 05:06:01;;;;;;;23.02;13.23;;;-2.30;99.90;;;;;;5012432;28;20041;-70
2021/03/07 05:08:27;;;;;;;21.10;12.88;;;-2.50;99.90;;;;;;5012526;28;20077;-70
2021/03/07 05:10:54;;;;;;;21.27;12.88;;;-2.60;99.90;;;;;;5012527;28;20034;-70
2021/03/07 05:13:20;;;;;;;20.15;13.38;;;-2.50;99.90;;;;;;5011220;28;20021;-69
2021/03/07 05:15:45;;;;;;;19.77;12.63;;;-2.50;99.90;;;;;;5011869;28;20076;-70
2021/03/07 05:18:11;;;;;;;19.85;12.90;;;-2.50;99.90;;;;;;5011362;28;20049;-69
2021/03/07 05:20:37;;;;;;;22.23;12.50;;;-2.40;99.90;;;;;;5011455;28;20029;-69
2021/03/07 05:23:02;;;;;;;24.08;12.63;;;-2.40;99.90;;;;;;5011571;28;20033;-69
2021/03/07 05:25:28;;;;;;;18.13;11.27;;;-2.40;99.90;;;;;;5012280;28;20032;-69
2021/03/07 05:27:54;;;;;;;20.50;12.25;;;-2.50;99.90;;;;;;5012800;28;20040;-69
2021/03/07 05:30:21;;;;;;;25.15;12.82;;;-2.50;99.90;;;;;;5011329;28;20037;-71
2021/03/07 05:32:47;;;;;;;21.27;12.40;;;-2.50;99.90;;;;;;5010193;28;20113;-68
2021/03/07 05:35:13;;;;;;;22.02;12.57;;;-2.60;99.90;;;;;;5012012;28;20022;-69
2021/03/07 05:37:39;;;;;;;20.58;12.48;;;-2.50;99.90;;;;;;5012159;28;20431;-69
2021/03/07 05:40:06;;;;;;;20.98;12.50;;;-2.40;99.90;;;;;;5012090;28;20451;-70
2021/03/07 05:42:33;;;;;;;25.33;12.63;;;-2.50;99.90;;;;;;5011981;28;20477;-71
2021/03/07 05:44:59;;;;;;;19.77;11.85;;;-2.50;99.90;;;;;;5011289;28;20045;-70
2021/03/07 05:47:26;;;;;;;23.67;12.45;;;-2.50;99.90;;;;;;5011611;28;20026;-70
2021/03/07 05:49:53;;;;;;;21.08;12.90;;;-2.40;99.90;;;;;;5009937;28;20102;-71
2021/03/07 05:52:23;;;;;;;28.77;14.35;;;-2.50;99.90;;;;;;5011646;28;20481;-69
2021/03/07 05:54:49;;;;;;;23.88;12.65;;;-2.40;99.90;;;;;;5011256;28;20030;-70
2021/03/07 05:57:18;;;;;;;25.30;12.98;;;-2.40;99.90;;;;;;5011864;28;20083;-70
2021/03/07 05:59:44;;;;;;;22.20;12.95;;;-2.30;99.90;;;;;;5013030;28;20056;-68
2021/03/07 06:02:16;;;;;;;23.40;12.82;;;-2.40;99.90;;;;;;5011255;28;20028;-70
2021/03/07 06:04:43;;;;;;;21.60;13.02;;;-2.40;99.90;;;;;;4997365;28;20037;-71
2021/03/07 06:07:09;;;;;;;20.27;13.05;;;-2.30;99.90;;;;;;5012769;28;20034;-72
2021/03/07 06:09:35;;;;;;;23.15;13.13;;;-2.30;99.90;;;;;;5005260;28;20033;-70
2021/03/07 06:12:02;;;;;;;30.83;13.65;;;-2.30;99.90;;;;;;4992905;28;20504;-72
2021/03/07 06:14:32;;;;;;;21.25;12.45;;;-2.20;99.90;;;;;;4990561;28;20397;-71
2021/03/07 06:17:04;;;;;;;20.02;12.75;;;-2.20;99.90;;;;;;4994357;28;20022;-72
2021/03/07 06:19:31;;;;;;;22.23;13.35;;;-2.30;99.90;;;;;;4992282;28;20508;-71
2021/03/07 06:22:12;;;;;;;23.85;13.85;;;-2.40;99.90;;;;;;4995649;28;20026;-72
2021/03/07 06:24:41;;;;;;;24.45;12.93;;;-2.40;99.90;;;;;;5007056;28;20029;-71
2021/03/07 06:27:09;;;;;;;20.75;12.55;;;-2.00;99.90;;;;;;5023065;28;20048;-73
2021/03/07 06:29:58;;;;;;;27.05;13.23;;;-2.40;99.90;;;;;;5015605;28;20026;-71
2021/03/07 06:32:26;;;;;;;24.70;12.88;;;-2.50;99.90;;;;;;5010301;28;20041;-72
2021/03/07 06:34:52;;;;;;;20.65;13.48;;;-2.50;99.90;;;;;;5014286;28;20489;-71
2021/03/07 06:37:18;;;;;;;25.33;13.30;;;-2.40;99.90;;;;;;5016203;28;20045;-71
2021/03/07 06:39:44;;;;;;;23.85;13.73;;;-2.50;99.90;;;;;;5015748;28;20034;-71
2021/03/07 06:42:11;;;;;;;24.23;13.65;;;-2.40;99.90;;;;;;5016046;28;20033;-71
2021/03/07 06:44:38;;;;;;;21.25;13.23;;;-2.20;99.90;;;;;;5013631;28;20029;-71
2021/03/07 06:47:11;;;;;;;24.50;13.15;;;-2.20;99.90;;;;;;5015625;28;20037;-70
2021/03/07 06:49:38;;;;;;;22.10;13.95;;;-2.20;99.90;;;;;;5037485;28;20029;-71
2021/03/07 06:52:16;;;;;;;22.10;13.48;;;-2.20;99.90;;;;;;5038439;28;20048;-71
2021/03/07 06:54:44;;;;;;;22.70;12.35;;;-2.20;99.90;;;;;;4985684;28;20098;-71
2021/03/07 06:57:11;;;;;;;21.30;12.90;;;-2.10;99.90;;;;;;4985682;28;20633;-70
2021/03/07 06:59:37;;;;;;;24.83;13.90;;;-2.00;99.90;;;;;;4985288;28;20033;-70
2021/03/07 07:02:11;;;;;;;26.23;14.43;;;-1.80;99.90;;;;;;4975944;28;20494;-69
2021/03/07 07:04:42;;;;;;;20.88;13.23;;;-1.80;99.90;;;;;;4998899;28;20457;-74
2021/03/07 07:07:14;;;;;;;19.97;12.43;;;-1.70;99.90;;;;;;5013596;28;20040;-75
2021/03/07 07:09:40;;;;;;;17.70;10.70;;;-1.60;99.90;;;;;;5014695;28;20935;-79
2021/03/07 07:12:18;;;;;;;25.60;14.35;;;-1.50;99.90;;;;;;5016213;28;20030;-77
2021/03/07 07:14:44;;;;;;;20.60;12.57;;;-1.40;99.90;;;;;;5014561;28;20437;-76
2021/03/07 07:17:15;;;;;;;22.83;13.40;;;-1.20;99.90;;;;;;5014259;28;20054;-76
2021/03/07 07:19:42;;;;;;;24.58;13.10;;;-1.20;99.90;;;;;;5014165;28;20022;-75
2021/03/07 07:22:11;;;;;;;21.42;13.68;;;-1.10;99.90;;;;;;5014563;28;20380;-74
2021/03/07 07:24:37;;;;;;;21.80;13.18;;;-0.80;99.90;;;;;;5013283;28;20037;-73
2021/03/07 07:27:03;;;;;;;22.63;13.40;;;-0.70;99.90;;;;;;5013304;28;20105;-73
2021/03/07 07:29:29;;;;;;;20.23;13.85;;;-0.60;99.90;;;;;;5012201;28;20607;-74
2021/03/07 07:32:06;;;;;;;23.30;14.48;;;-0.30;99.90;;;;;;5012562;28;20030;-75
2021/03/07 07:34:37;;;;;;;19.73;12.75;;;-0.10;99.90;;;;;;5012990;28;20033;-76
2021/03/07 07:37:08;;;;;;;21.25;13.10;;;0.00;99.90;;;;;;5013196;28;20022;-74
2021/03/07 07:39:39;;;;;;;21.52;12.68;;;0.10;99.90;;;;;;5025557;28;20109;-75
2021/03/07 07:42:37;;;;;;;23.90;12.85;;;0.20;99.90;;;;;;5015661;28;20046;-71
2021/03/07 07:45:12;;;;;;;24.40;12.98;;;-0.10;99.90;;;;;;4991189;28;20073;-68
2021/03/07 07:47:46;;;;;;;17.48;12.65;;;1.20;99.90;;;;;;5012200;28;20065;-68
2021/03/07 07:50:38;;;;;;;20.73;12.07;;;2.50;99.90;;;;;;5012840;28;20480;-71
2021/03/07 07:53:04;;;;;;;20.30;12.73;;;2.10;99.90;;;;;;5009495;28;20041;-70
2021/03/07 07:55:43;;;;;;;19.60;12.50;;;1.70;99.90;;;;;;5013461;28;20018;-72
2021/03/07 07:58:10;;;;;;;16.05;11.45;;;1.50;99.90;;;;;;5006090;28;20022;-73
2021/03/07 08:00:51;;;;;;;16.48;11.70;;;1.40;99.90;;;;;;4994282;28;20064;-71
2021/03/07 08:03:37;;;;;;;17.27;11.85;;;1.30;99.90;;;;;;4993665;28;20501;-73
2021/03/07 08:06:05;;;;;;;16.35;11.35;;;1.10;99.90;;;;;;4992584;28;20121;-73
2021/03/07 08:08:39;;;;;;;16.55;11.23;;;1.10;99.90;;;;;;4993749;28;20026;-71
2021/03/07 08:11:30;;;;;;;16.95;11.55;;;1.40;99.90;;;;;;4994073;28;19916;-73
2021/03/07 08:13:59;;;;;;;15.50;11.02;;;1.70;99.90;;;;;;4991997;28;20030;-72
2021/03/07 08:16:44;;;;;;;16.98;11.52;;;1.50;99.90;;;;;;4993772;28;20030;-70
2021/03/07 08:19:42;;;;;;;17.15;11.25;;;1.40;99.90;;;;;;4998986;28;20570;-70
2021/03/07 08:22:08;;;;;;;13.95;9.85;;;1.80;99.90;;;;;;5013432;28;20117;-73
2021/03/07 08:24:53;;;;;;;16.05;9.85;;;2.20;99.90;;;;;;5011169;28;20140;-74
2021/03/07 08:27:35;;;;;;;14.00;9.55;;;2.30;99.90;;;;;;5003175;28;20057;-72
2021/03/07 08:30:01;;;;;;;14.18;10.52;;;3.20;99.90;;;;;;5003871;28;20034;-71
2021/03/07 08:32:43;;;;;;;15.05;11.07;;;6.70;99.90;;;;;;5013213;28;20030;-73
2021/03/07 08:35:24;;;;;;;12.60;10.68;;;9.90;89.00;;;;;;5012678;28;20091;-72
2021/03/07 08:38:08;;;;;;;10.95;9.85;;;12.30;71.40;;;;;;5013081;28;20045;-71
2021/03/07 08:40:35;;;;;;;14.68;9.50;;;14.00;60.90;;;;;;5012406;28;20026;-71
2021/03/07 08:43:23;;;;;;;12.30;9.60;;;13.20;57.00;;;;;;5012583;28;20389;-70
2021/03/07 08:46:12;;;;;;;11.35;9.68;;;14.20;56.40;;;;;;5012863;28;20034;-70
2021/03/07 08:48:39;;;;;;;12.00;10.02;;;14.60;54.10;;;;;;5013250;28;20018;-72
2021/03/07 08:51:06;;;;;;;10.70;9.63;;;15.20;54.10;;;;;;5012612;28;20551;-72
2021/03/07 08:53:34;;;;;;;10.93;9.77;;;16.00;52.30;;;;;;4995117;28;20023;-69
2021/03/07 08:56:00;;;;;;;10.57;9.48;;;15.00;55.20;;;;;;4992123;28;20026;-72
2021/03/07 08:58:26;;;;;;;12.85;10.50;;;16.50;51.00;;;;;;4995072;28;20041;-72
2021/03/07 09:00:54;;;;;;;11.40;10.05;;;17.20;49.30;;;;;;4979970;28;20035;-71
2021/03/07 09:03:22;;;;;;;10.98;9.38;;;17.10;48.30;;;;;;4977207;28;20030;-70
2021/03/07 09:05:48;;;;;;;12.23;9.57;;;16.80;48.80;;;;;;4973645;28;20035;-71
2021/03/07 09:08:14;;;;;;;11.80;9.90;;;17.40;47.80;;;;;;4974153;28;20023;-70
2021/03/07 09:10:43;;;;;;;9.93;8.93;;;17.70;47.30;;;;;;4974109;28;20027;-70
2021/03/07 09:13:13;;;;;;;10.40;9.20;;;18.00;45.80;;;;;;4973010;28;20520;-72
2021/03/07 09:15:49;;;;;;;10.65;8.45;;;18.40;45.30;;;;;;4973554;28;20050;-71
2021/03/07 09:18:16;;;;;;;12.30;9.75;;;18.60;44.00;;;;;;4973752;28;20027;-73
2021/03/07 09:20:53;;;;;;;10.10;9.07;;;18.80;43.20;;;;;;4983053;28;20036;-72
2021/03/07 09:23:36;;;;;;;10.52;8.90;;;17.60;46.00;;;;;;4992153;28;20117;-71
2021/03/07 09:26:09;;;;;;;11.55;8.95;;;16.70;46.30;;;;;;4992959;28;20026;-70
2021/03/07 09:28:42;;;;;;;11.90;8.77;;;18.10;45.40;;;;;;4992979;28;20108;-72
2021/03/07 09:31:10;;;;;;;9.38;8.48;;;19.80;41.90;;;;;;4993342;28;20022;-71
2021/03/07 09:33:36;;;;;;;10.13;9.10;;;20.80;40.50;;;;;;5001437;28;20025;-72
2021/03/07 09:36:12;;;;;;;10.20;9.30;;;19.40;42.80;;;;;;5016898;28;20476;-71
2021/03/07 09:38:57;;;;;;;11.23;10.15;;;19.90;41.90;;;;;;5019119;28;20050;-72
2021/03/07 09:41:44;;;;;;;10.77;9.68;;;21.10;40.30;;;;;;5014704;28;20061;-73
2021/03/07 09:44:17;;;;;;;11.30;8.73;;;19.90;41.00;;;;;;5012089;28;20029;-72
2021/03/07 09:46:45;;;;;;;10.77;9.70;;;20.40;41.30;;;;;;5013617;28;20040;-71
2021/03/07 09:49:15;;;;;;;9.30;8.50;;;20.60;40.70;;;;;;5013345;28;20022;-71
2021/03/07 09:51:44;;;;;;;11.15;9.88;;;20.00;42.50;;;;;;5013633;28;20018;-71
2021/03/07 09:54:12;;;;;;;11.07;10.07;;;20.80;41.50;;;;;;5018284;28;20029;-72
2021/03/07 09:56:39;;;;;;;10.88;9.73;;;19.00;42.40;;;;;;5014676;28;20087;-72
2021/03/07 09:59:25;;;;;;;10.95;9.85;;;18.10;45.70;;;;;;4999507;28;20034;-74
2021/03/07 10:02:03;;;;;;;13.20;11.45;;;19.40;44.60;;;;;;4993893;28;20026;-72
2021/03/07 10:04:34;;;;;;;11.50;10.32;;;20.70;41.70;;;;;;4995363;28;20122;-71
2021/03/07 10:07:18;;;;;;;13.23;11.82;;;19.60;43.30;;;;;;4996125;28;20548;-74
2021/03/07 10:10:03;;;;;;;11.93;10.32;;;19.40;43.80;;;;;;4994225;28;20092;-73
2021/03/07 10:12:58;;;;;;;11.10;9.88;;;21.50;41.10;;;;;;4998595;28;20421;-72
2021/03/07 10:15:40;;;;;;;12.02;10.77;;;23.40;38.60;;;;;;4999117;28;20062;-70
2021/03/07 10:18:16;;;;;;;11.80;10.63;;;21.40;40.90;;;;;;4995315;28;20027;-70
2021/03/07 10:20:57;;;;;;;11.40;10.30;;;22.20;39.80;;;;;;4998076;28;20078;-71
2021/03/07 10:23:26;;;;;;;13.02;10.30;;;20.80;41.10;;;;;;5018224;28;20029;-72
2021/03/07 10:25:52;;;;;;;11.52;10.40;;;18.00;47.60;;;;;;5026716;28;20060;-73
2021/03/07 10:28:24;;;;;;;10.80;9.80;;;19.10;43.80;;;;;;5028500;28;20030;-73
2021/03/07 10:30:51;;;;;;;10.93;9.90;;;20.80;43.50;;;;;;5029186;28;20026;-72
2021/03/07 10:33:28;;;;;;;11.07;9.98;;;21.20;40.80;;;;;;5030162;28;20059;-72
2021/03/07 10:35:59;;;;;;;10.35;9.43;;;22.30;39.50;;;;;;5021446;28;20578;-74
2021/03/07 10:38:24;;;;;;;11.50;10.43;;;23.10;38.00;;;;;;5013107;28;20369;-73
2021/03/07 10:40:50;;;;;;;11.85;10.77;;;22.80;38.40;;;;;;5027703;28;20033;-71
2021/03/07 10:43:16;;;;;;;11.25;10.15;;;23.40;38.60;;;;;;5021048;28;20041;-70
2021/03/07 10:45:42;;;;;;;11.57;10.48;;;23.20;37.40;;;;;;5011688;28;20096;-72
2021/03/07 10:48:08;;;;;;;11.65;10.55;;;24.00;38.00;;;;;;5010902;28;20054;-71
2021/03/07 10:50:36;;;;;;;11.00;10.02;;;23.10;38.80;;;;;;5011804;28;20393;-70
2021/03/07 10:53:02;;;;;;;11.57;10.50;;;23.50;38.80;;;;;;5011115;28;20032;-70
2021/03/07 10:55:28;;;;;;;11.73;10.57;;;22.80;38.20;;;;;;5012233;28;20400;-71
2021/03/07 10:57:54;;;;;;;13.20;10.98;;;23.30;38.00;;;;;;5011906;28;20109;-71
2021/03/07 11:00:21;;;;;;;11.65;10.60;;;20.50;40.80;;;;;;5012197;28;20465;-70
2021/03/07 11:02:47;;;;;;;11.40;10.30;;;20.10;42.40;;;;;;5011154;28;20101;-73
2021/03/07 11:05:13;;;;;;;12.43;10.88;;;21.10;41.20;;;;;;5011771;28;20439;-71
2021/03/07 11:07:44;;;;;;;11.75;10.30;;;23.00;38.50;;;;;;5012450;28;20113;-72
2021/03/07 11:10:12;;;;;;;12.75;11.55;;;23.20;38.20;;;;;;5012075;28;20029;-71
2021/03/07 11:12:38;;;;;;;12.25;11.05;;;23.80;36.90;;;;;;5014119;28;20109;-74
2021/03/07 11:15:06;;;;;;;11.15;9.98;;;24.40;36.90;;;;;;5014896;28;20113;-71
2021/03/07 11:17:32;;;;;;;11.95;10.57;;;20.50;41.90;;;;;;5014675;28;20022;-71
2021/03/07 11:19:58;;;;;;;10.90;9.85;;;20.40;41.50;;;;;;5015281;28;20101;-73
2021/03/07 11:22:25;;;;;;;10.25;9.35;;;21.90;41.20;;;;;;5015292;28;20029;-72
2021/03/07 11:24:51;;;;;;;10.90;9.75;;;21.40;40.40;;;;;;5014416;28;20029;-71
2021/03/07 11:27:17;;;;;;;10.85;9.85;;;22.60;38.60;;;;;;5014072;28;20464;-71
2021/03/07 11:29:43;;;;;;;11.50;10.32;;;23.60;38.20;;;;;;5014979;28;20038;-71
2021/03/07 11:32:09;;;;;;;10.15;9.15;;;23.00;38.50;;;;;;5014602;28;20025;-71
2021/03/07 11:34:35;;;;;;;11.00;10.02;;;24.10;38.60;;;;;;5012101;28;20392;-70
2021/03/07 11:37:01;;;;;;;14.35;10.80;;;25.50;35.10;;;;;;5013327;28;20421;-70
2021/03/07 11:39:27;;;;;;;11.48;10.48;;;22.40;37.20;;;;;;5015157;28;20060;-71
2021/03/07 11:41:52;;;;;;;11.68;10.48;;;21.20;40.20;;;;;;5014709;28;20021;-71
2021/03/07 11:44:18;;;;;;;10.52;9.52;;;21.20;41.20;;;;;;5014380;28;20076;-71
2021/03/07 11:46:44;;;;;;;11.07;9.98;;;21.90;39.80;;;;;;5014632;28;20042;-72
2021/03/07 11:49:09;;;;;;;11.82;10.60;;;23.90;36.40;;;;;;4994783;28;20022;-70
2021/03/07 11:51:36;;;;;;;10.77;9.68;;;23.60;37.50;;;;;;4993003;28;20023;-72
2021/03/07 11:54:05;;;;;;;10.57;9.57;;;23.60;38.80;;;;;;4999192;28;20022;-70
2021/03/07 11:56:32;;;;;;;11.65;10.55;;;22.90;37.10;;;;;;4985867;28;20055;-71
2021/03/07 11:58:58;;;;;;;11.30;10.20;;;21.40;41.00;;;;;;4983687;28;20026;-72
2021/03/07 12:01:24;;;;;;;10.38;9.38;;;24.00;37.50;;;;;;4980213;28;20026;-72
2021/03/07 12:03:49;;;;;;;11.90;10.73;;;24.80;37.00;;;;;;4977870;28;20091;-73
2021/03/07 12:06:15;;;;;;;11.13;9.93;;;25.00;36.30;;;;;;5006405;28;20033;-73
2021/03/07 12:08:40;;;;;;;11.18;10.07;;;26.00;35.50;;;;;;4994611;28;20033;-70
2021/03/07 12:11:06;;;;;;;10.85;9.75;;;26.40;35.40;;;;;;4994765;28;20077;-68
2021/03/07 12:13:32;;;;;;;10.68;9.68;;;25.90;35.10;;;;;;5002420;28;20023;-71
2021/03/07 12:15:57;;;;;;;12.63;10.13;;;25.90;35.30;;;;;;5005238;28;20030;-73
2021/03/07 12:18:23;;;;;;;11.35;9.88;;;25.80;35.40;;;;;;5004800;28;20033;-72
2021/03/07 12:20:49;;;;;;;10.95;9.90;;;25.20;35.60;;;;;;5007176;28;20029;-72
2021/03/07 12:23:14;;;;;;;11.23;10.13;;;25.70;34.90;;;;;;5004519;28;20034;-73
2021/03/07 12:25:40;;;;;;;10.52;9.55;;;24.30;35.50;;;;;;4998105;28;20084;-71
2021/03/07 12:28:07;;;;;;;10.32;8.93;;;24.00;36.80;;;;;;5002818;28;20026;-71
2021/03/07 12:30:33;;;;;;;11.50;10.40;;;25.70;35.30;;;;;;5014261;28;20021;-71
2021/03/07 12:32:58;;;;;;;10.93;9.90;;;26.30;34.10;;;;;;5018186;28;20094;-71
2021/03/07 12:35:24;;;;;;;10.80;9.80;;;26.90;33.30;;;;;;5020247;28;20030;-70
2021/03/07 12:37:50;;;;;;;10.95;9.73;;;26.30;33.70;;;;;;5022243;28;20029;-75
2021/03/07 12:40:16;;;;;;;11.80;9.80;;;26.00;34.60;;;;;;5022862;28;20037;-74